Time;durP1;ratioP1;P1;durP2;ratioP2;P2;SDS_P1;SDS_P2;PMS_P1;PMS_P2;Temp;Humidity;BMP_temperature;BMP_pressure;BME280_temperature;BME280_humidity;BME280_pressure;Samples;Min_cycle;Max_cycle;Signal;HPM_P1;HPM_P2
2023/09/08 00:01:41;;;;;;;4.93;3.27;;;31.60;45.50;;;;;;5081119;27;89128;-55
2023/09/08 00:04:09;;;;;;;4.63;3.20;;;31.70;45.60;;;;;;5081821;27;88955;-55
2023/09/08 00:06:37;;;;;;;5.60;3.00;;;31.60;45.50;;;;;;5081471;27;87673;-54
2023/09/08 00:09:06;;;;;;;4.53;2.90;;;31.60;45.60;;;;;;5081419;27;88917;-55
2023/09/08 00:11:34;;;;;;;5.00;3.30;;;31.70;45.60;;;;;;5079812;27;89239;-54
2023/09/08 00:14:03;;;;;;;4.43;3.27;;;31.60;45.50;;;;;;5080521;27;88873;-56
2023/09/08 00:16:31;;;;;;;3.53;3.03;;;31.60;46.10;;;;;;5080019;27;87310;-54
2023/09/08 00:18:59;;;;;;;4.40;3.30;;;31.60;46.20;;;;;;5080258;27;88577;-54
2023/09/08 00:21:27;;;;;;;5.17;3.63;;;31.60;45.50;;;;;;5079144;27;89095;-54
2023/09/08 00:23:56;;;;;;;9.53;4.03;;;31.60;45.60;;;;;;5080359;27;89895;-56
2023/09/08 00:26:24;;;;;;;4.17;3.17;;;31.60;45.60;;;;;;5080590;27;87681;-55
2023/09/08 00:28:52;;;;;;;4.87;3.27;;;31.60;45.60;;;;;;5080635;27;89565;-56
2023/09/08 00:31:21;;;;;;;6.27;3.40;;;31.60;45.60;;;;;;5079772;27;88108;-56
2023/09/08 00:33:49;;;;;;;5.63;3.30;;;31.60;45.60;;;;;;5080422;27;87763;-56
2023/09/08 00:36:18;;;;;;;4.20;2.97;;;31.60;45.60;;;;;;5079588;27;87556;-56
2023/09/08 00:38:47;;;;;;;3.70;3.33;;;31.60;45.60;;;;;;5081056;27;89847;-55
2023/09/08 00:41:15;;;;;;;3.27;2.97;;;31.60;45.60;;;;;;5080584;27;89053;-56
2023/09/08 00:43:43;;;;;;;4.53;2.70;;;31.60;45.60;;;;;;5081540;27;88921;-55
2023/09/08 00:46:11;;;;;;;4.87;3.40;;;31.60;45.60;;;;;;5080650;27;88147;-56
2023/09/08 00:48:40;;;;;;;3.07;2.70;;;31.50;45.60;;;;;;5081009;27;89860;-56
2023/09/08 00:51:09;;;;;;;4.47;2.90;;;31.50;45.60;;;;;;5080880;27;88082;-55
2023/09/08 00:53:37;;;;;;;3.73;3.07;;;31.50;45.60;;;;;;5080688;27;87757;-56
2023/09/08 00:56:06;;;;;;;3.13;2.73;;;31.50;45.60;;;;;;5081445;27;87554;-56
2023/09/08 00:58:34;;;;;;;3.80;2.90;;;31.50;45.60;;;;;;5081140;27;89614;-56
2023/09/08 01:01:02;;;;;;;3.73;2.90;;;31.50;45.70;;;;;;5080968;27;89185;-55
2023/09/08 01:03:30;;;;;;;2.63;2.30;;;31.50;45.70;;;;;;5080069;27;87924;-56
2023/09/08 01:06:00;;;;;;;3.20;2.43;;;31.50;45.70;;;;;;5080912;27;87547;-56
2023/09/08 01:08:28;;;;;;;5.30;3.30;;;31.50;45.70;;;;;;5080922;27;89734;-56
2023/09/08 01:10:56;;;;;;;2.97;2.70;;;31.50;45.70;;;;;;5080210;27;88932;-56
2023/09/08 01:13:24;;;;;;;2.80;2.40;;;31.50;45.80;;;;;;5081078;27;89748;-55
2023/09/08 01:15:52;;;;;;;3.70;3.03;;;31.50;45.80;;;;;;5080549;27;87637;-55
2023/09/08 01:18:20;;;;;;;2.93;2.53;;;31.50;45.80;;;;;;5080881;27;88202;-56
2023/09/08 01:21:07;;;;;;;2.77;2.50;;;31.50;45.80;;;;;;5079772;27;89038;-55
2023/09/08 01:23:40;;;;;;;2.73;2.27;;;31.50;45.80;;;;;;5082920;27;88966;-56
2023/09/08 01:26:10;;;;;;;3.37;2.80;;;31.50;45.80;;;;;;5084696;27;87644;-56
2023/09/08 01:28:38;;;;;;;3.30;2.67;;;31.50;45.80;;;;;;5084061;27;88434;-56
2023/09/08 01:31:06;;;;;;;4.23;2.60;;;31.50;45.80;;;;;;5084195;27;89342;-56
2023/09/08 01:33:35;;;;;;;3.30;2.50;;;31.40;46.40;;;;;;5083780;27;88764;-56
2023/09/08 01:36:03;;;;;;;2.97;2.67;;;31.50;45.80;;;;;;5083596;27;87759;-55
2023/09/08 01:38:31;;;;;;;3.40;2.90;;;31.40;45.70;;;;;;5083614;27;87324;-56
2023/09/08 01:41:01;;;;;;;4.30;3.10;;;31.50;45.80;;;;;;5084187;27;87857;-56
2023/09/08 01:43:31;;;;;;;4.00;2.80;;;31.40;45.70;;;;;;5083221;27;88831;-56
2023/09/08 01:45:59;;;;;;;4.03;2.97;;;31.40;45.70;;;;;;5083686;27;88251;-56
2023/09/08 01:48:27;;;;;;;3.93;2.20;;;31.40;45.70;;;;;;5084136;27;89584;-56
2023/09/08 01:50:55;;;;;;;3.43;2.57;;;31.50;45.90;;;;;;5083685;27;88065;-56
2023/09/08 01:53:23;;;;;;;3.33;2.70;;;31.40;45.80;;;;;;5084069;27;88698;-56
2023/09/08 01:55:51;;;;;;;3.67;2.20;;;31.40;45.80;;;;;;5083787;27;87465;-56
2023/09/08 01:58:19;;;;;;;2.30;2.00;;;31.40;45.80;;;;;;5083683;27;89723;-57
2023/09/08 02:00:50;;;;;;;3.03;2.30;;;31.40;45.80;;;;;;5082881;27;87818;-56
2023/09/08 02:03:19;;;;;;;4.67;2.27;;;31.40;45.80;;;;;;5082501;27;87541;-56
2023/09/08 02:05:47;;;;;;;4.90;2.40;;;31.40;45.90;;;;;;5077623;27;87527;-56
2023/09/08 02:08:15;;;;;;;2.87;2.27;;;31.40;45.90;;;;;;5082691;27;89768;-56
2023/09/08 02:10:43;;;;;;;3.40;2.50;;;31.40;45.90;;;;;;5083846;27;88248;-56
2023/09/08 02:13:11;;;;;;;4.03;2.30;;;31.40;46.00;;;;;;5082707;27;88907;-56
2023/09/08 02:15:39;;;;;;;3.73;2.73;;;31.40;46.00;;;;;;5083664;27;87427;-56
2023/09/08 02:18:09;;;;;;;2.60;2.40;;;31.40;46.00;;;;;;5083235;27;89749;-56
2023/09/08 02:20:38;;;;;;;3.40;2.63;;;31.40;46.60;;;;;;5082645;27;88048;-56
2023/09/08 02:23:06;;;;;;;2.63;2.30;;;31.40;46.00;;;;;;5082643;27;87797;-56
2023/09/08 02:25:34;;;;;;;5.80;2.60;;;31.40;46.00;;;;;;5081333;27;87897;-56
2023/09/08 02:28:03;;;;;;;6.47;3.27;;;31.40;46.00;;;;;;5082116;27;89714;-55
2023/09/08 02:30:31;;;;;;;4.03;2.60;;;31.40;46.10;;;;;;5082313;27;89016;-53
2023/09/08 02:32:59;;;;;;;6.23;3.77;;;31.30;46.00;;;;;;5082636;27;87667;-54
2023/09/08 02:35:28;;;;;;;4.33;3.43;;;31.40;46.10;;;;;;5083037;27;87690;-57
2023/09/08 02:37:58;;;;;;;4.90;3.60;;;31.30;46.00;;;;;;5083478;27;88548;-54
2023/09/08 02:40:26;;;;;;;4.93;4.17;;;31.30;46.70;;;;;;5082505;27;88029;-54
2023/09/08 02:42:54;;;;;;;5.03;3.63;;;31.30;46.00;;;;;;5082672;27;88851;-54
2023/09/08 02:45:22;;;;;;;6.47;4.20;;;31.30;46.00;;;;;;5083534;27;87617;-54
2023/09/08 02:47:50;;;;;;;4.37;3.33;;;31.30;46.10;;;;;;5082320;27;89698;-54
2023/09/08 02:50:18;;;;;;;6.50;3.80;;;31.30;46.10;;;;;;5080454;27;89168;-54
2023/09/08 02:52:48;;;;;;;4.37;3.63;;;31.30;46.10;;;;;;5081520;27;88744;-54
2023/09/08 02:55:16;;;;;;;6.63;3.60;;;31.30;46.70;;;;;;5076282;27;87756;-54
2023/09/08 02:57:44;;;;;;;5.27;3.70;;;31.20;46.10;;;;;;5078358;27;89739;-54
2023/09/08 03:00:13;;;;;;;7.03;4.20;;;31.20;46.10;;;;;;5079308;27;88982;-54
2023/09/08 03:02:41;;;;;;;6.00;3.97;;;31.20;46.10;;;;;;5079340;27;87907;-54
2023/09/08 03:05:10;;;;;;;4.90;3.23;;;31.20;46.10;;;;;;5079999;27;87539;-54
2023/09/08 03:07:39;;;;;;;4.43;3.70;;;31.20;46.10;;;;;;5079178;27;88356;-54
2023/09/08 03:10:09;;;;;;;5.23;3.90;;;31.20;46.10;;;;;;5079708;27;88669;-54
2023/09/08 03:12:37;;;;;;;4.07;3.57;;;31.20;46.10;;;;;;5079680;27;88948;-54
2023/09/08 03:15:07;;;;;;;6.33;4.03;;;31.20;46.70;;;;;;5079239;27;88091;-54
2023/09/08 03:17:35;;;;;;;4.60;3.60;;;31.20;46.10;;;;;;5079455;27;89699;-54
2023/09/08 03:20:05;;;;;;;7.50;3.10;;;31.20;46.10;;;;;;5079097;27;89486;-54
2023/09/08 03:22:33;;;;;;;8.27;3.93;;;31.20;46.10;;;;;;5079103;27;88571;-54
2023/09/08 03:25:01;;;;;;;5.30;3.80;;;31.20;46.10;;;;;;5079538;27;87785;-53
2023/09/08 03:27:30;;;;;;;3.70;3.23;;;31.20;46.10;;;;;;5079979;27;89621;-54
2023/09/08 03:29:58;;;;;;;4.37;3.30;;;31.20;46.10;;;;;;5079723;27;87978;-54
2023/09/08 03:32:28;;;;;;;4.00;3.13;;;31.20;46.10;;;;;;5079597;27;87845;-54
2023/09/08 03:34:57;;;;;;;7.60;3.20;;;31.20;46.10;;;;;;5079770;27;88270;-54
2023/09/08 03:37:26;;;;;;;4.10;3.10;;;31.20;46.10;;;;;;5078970;27;88533;-54
2023/09/08 03:39:54;;;;;;;3.53;3.00;;;31.20;46.10;;;;;;5078386;27;90098;-54
2023/09/08 03:42:22;;;;;;;2.83;2.63;;;31.20;46.10;;;;;;5079005;27;88567;-54
2023/09/08 03:44:51;;;;;;;6.10;3.53;;;31.20;46.10;;;;;;5078958;27;87621;-54
2023/09/08 03:47:19;;;;;;;4.57;3.40;;;31.10;46.00;;;;;;5077376;27;88398;-54
2023/09/08 03:49:47;;;;;;;4.00;3.30;;;31.20;46.10;;;;;;5078341;27;87643;-54
2023/09/08 03:52:16;;;;;;;3.50;2.50;;;31.10;46.00;;;;;;5079067;27;87862;-54
2023/09/08 03:54:44;;;;;;;3.73;3.17;;;31.10;46.10;;;;;;5079390;27;88287;-54
2023/09/08 03:57:12;;;;;;;3.50;2.90;;;31.10;46.10;;;;;;5078822;27;89835;-54
2023/09/08 03:59:40;;;;;;;4.80;2.80;;;31.10;46.10;;;;;;5078516;27;88246;-54
2023/09/08 04:02:10;;;;;;;3.53;2.67;;;31.10;46.10;;;;;;5078147;27;88894;-54
2023/09/08 04:04:38;;;;;;;3.50;2.77;;;31.10;46.10;;;;;;5076846;27;89316;-53
2023/09/08 04:07:06;;;;;;;2.73;2.50;;;31.10;46.10;;;;;;5069946;27;89690;-53
2023/09/08 04:09:34;;;;;;;5.80;2.90;;;31.10;46.20;;;;;;5067852;27;89263;-56
2023/09/08 04:12:02;;;;;;;4.57;3.03;;;31.10;46.10;;;;;;5067622;27;88774;-54
2023/09/08 04:14:31;;;;;;;3.63;2.43;;;31.10;46.10;;;;;;5068239;27;87431;-54
2023/09/08 04:16:59;;;;;;;3.80;2.63;;;31.10;46.20;;;;;;5070308;27;89666;-54
2023/09/08 04:19:28;;;;;;;5.50;2.70;;;31.10;46.20;;;;;;5071906;27;88275;-54
2023/09/08 04:21:56;;;;;;;3.87;2.83;;;31.10;46.20;;;;;;5073061;27;88916;-54
2023/09/08 04:24:24;;;;;;;3.00;2.70;;;31.10;46.20;;;;;;5071136;27;87646;-54
2023/09/08 04:26:52;;;;;;;5.80;2.53;;;31.00;46.20;;;;;;5069221;27;88711;-54
2023/09/08 04:29:20;;;;;;;3.50;3.00;;;31.00;46.90;;;;;;5074162;27;90116;-54
2023/09/08 04:31:48;;;;;;;3.50;2.40;;;31.00;46.20;;;;;;5080611;27;89274;-54
2023/09/08 04:34:16;;;;;;;3.13;2.53;;;31.00;46.20;;;;;;5081553;27;87684;-54
2023/09/08 04:36:46;;;;;;;3.23;2.87;;;31.00;46.20;;;;;;5080457;27;88857;-54
2023/09/08 04:39:15;;;;;;;3.33;3.00;;;31.00;46.20;;;;;;5080387;27;89261;-54
2023/09/08 04:41:43;;;;;;;3.53;2.47;;;31.00;46.20;;;;;;5079922;27;87797;-54
2023/09/08 04:44:11;;;;;;;6.03;2.70;;;31.00;46.30;;;;;;5079279;27;87651;-54
2023/09/08 04:46:39;;;;;;;3.20;2.63;;;30.90;46.20;;;;;;5080693;27;88523;-54
2023/09/08 04:49:07;;;;;;;3.17;2.43;;;30.90;46.20;;;;;;5077339;27;89398;-54
2023/09/08 04:51:35;;;;;;;2.90;2.50;;;30.90;46.20;;;;;;5078963;27;87857;-54
2023/09/08 04:54:05;;;;;;;3.63;1.93;;;30.90;46.30;;;;;;5079111;27;87964;-55
2023/09/08 04:56:33;;;;;;;3.57;2.63;;;30.90;46.30;;;;;;5080286;27;89573;-53
2023/09/08 04:59:02;;;;;;;3.50;2.60;;;30.90;46.30;;;;;;5079623;27;88241;-54
2023/09/08 05:01:32;;;;;;;3.43;2.47;;;30.90;46.40;;;;;;5080380;27;87690;-54
2023/09/08 05:04:00;;;;;;;3.67;2.60;;;30.90;46.40;;;;;;5080805;27;87406;-53
2023/09/08 05:06:28;;;;;;;5.40;2.83;;;30.90;46.40;;;;;;5080150;27;89730;-54
2023/09/08 05:08:56;;;;;;;2.97;2.63;;;30.90;47.00;;;;;;5079927;27;89046;-54
2023/09/08 05:11:26;;;;;;;3.90;2.70;;;30.90;46.40;;;;;;5079666;27;88688;-54
2023/09/08 05:13:54;;;;;;;6.13;3.60;;;30.90;46.40;;;;;;5080500;27;87624;-54
2023/09/08 05:16:36;;;;;;;4.50;2.90;;;30.90;46.40;;;;;;5079723;27;89650;-54
2023/09/08 05:19:04;;;;;;;5.57;3.30;;;30.90;46.40;;;;;;5077772;27;88959;-55
2023/09/08 05:21:32;;;;;;;4.93;3.93;;;30.90;46.40;;;;;;5079656;27;88670;-53
2023/09/08 05:24:01;;;;;;;4.67;4.00;;;30.90;46.40;;;;;;5080194;27;87642;-53
2023/09/08 05:26:30;;;;;;;7.47;4.00;;;30.90;46.40;;;;;;5079780;27;88452;-54
2023/09/08 05:28:58;;;;;;;3.63;3.23;;;30.90;46.40;;;;;;5079673;27;89045;-54
2023/09/08 05:31:26;;;;;;;4.43;3.83;;;30.90;46.40;;;;;;5079855;27;88791;-54
2023/09/08 05:33:55;;;;;;;7.17;3.37;;;30.90;46.30;;;;;;5079819;27;87660;-54
2023/09/08 05:36:23;;;;;;;5.83;3.30;;;30.90;46.40;;;;;;5077407;27;88500;-54
2023/09/08 05:38:51;;;;;;;4.63;3.70;;;30.90;46.30;;;;;;5079449;27;88061;-54
2023/09/08 05:41:19;;;;;;;4.63;3.87;;;31.00;46.30;;;;;;5079459;27;88897;-53
2023/09/08 05:43:48;;;;;;;8.57;3.60;;;31.00;46.30;;;;;;5079402;27;87885;-53
2023/09/08 05:46:17;;;;;;;5.90;4.27;;;31.00;46.30;;;;;;5080079;27;89633;-54
2023/09/08 05:48:45;;;;;;;5.90;4.17;;;31.00;46.20;;;;;;5071573;27;89140;-54
2023/09/08 05:51:13;;;;;;;5.90;3.67;;;31.00;46.20;;;;;;5078590;27;87590;-54
2023/09/08 05:53:41;;;;;;;4.00;3.47;;;31.00;46.20;;;;;;5077133;27;87555;-54
2023/09/08 05:56:09;;;;;;;4.00;3.60;;;31.10;46.30;;;;;;5079764;27;89872;-54
2023/09/08 05:58:37;;;;;;;4.90;3.73;;;31.10;46.30;;;;;;5079776;27;88743;-54
2023/09/08 06:01:07;;;;;;;5.10;3.70;;;31.10;46.30;;;;;;5079771;27;87883;-54
2023/09/08 06:03:35;;;;;;;5.10;3.90;;;31.10;46.20;;;;;;5079547;27;87520;-54
2023/09/08 06:06:04;;;;;;;7.50;3.77;;;31.10;46.20;;;;;;5079292;27;89591;-54
2023/09/08 06:08:32;;;;;;;4.23;3.40;;;31.10;46.20;;;;;;5078714;27;89921;-54
2023/09/08 06:11:00;;;;;;;5.33;3.97;;;31.10;46.20;;;;;;5080000;27;88747;-55
2023/09/08 06:13:28;;;;;;;4.93;3.63;;;31.10;46.20;;;;;;5083585;27;87659;-53
2023/09/08 06:15:56;;;;;;;5.10;3.90;;;31.10;46.20;;;;;;5081854;27;89629;-54
2023/09/08 06:18:29;;;;;;;6.37;4.33;;;31.10;46.20;;;;;;5082315;27;88090;-54
2023/09/08 06:20:57;;;;;;;6.53;4.10;;;31.10;46.20;;;;;;5081917;27;88832;-54
2023/09/08 06:23:25;;;;;;;6.40;3.87;;;31.10;46.10;;;;;;5083005;27;87541;-54
2023/09/08 06:25:58;;;;;;;5.03;3.87;;;31.10;46.10;;;;;;5082980;27;90031;-54
2023/09/08 06:28:27;;;;;;;8.43;4.20;;;31.10;46.10;;;;;;5080804;27;89085;-54
2023/09/08 06:30:55;;;;;;;10.53;4.87;;;31.10;46.10;;;;;;5082724;27;88875;-54
2023/09/08 06:33:23;;;;;;;5.60;4.37;;;31.20;46.20;;;;;;5082367;27;88320;-54
2023/09/08 06:35:53;;;;;;;8.37;5.27;;;31.20;46.20;;;;;;5069926;27;89864;-54
2023/09/08 06:38:21;;;;;;;5.17;3.63;;;31.20;46.20;;;;;;5076390;27;87339;-54
2023/09/08 06:40:52;;;;;;;7.93;4.53;;;31.20;46.10;;;;;;5079332;27;88924;-55
2023/09/08 06:43:20;;;;;;;5.27;4.50;;;31.20;46.10;;;;;;5079903;27;87947;-54
2023/09/08 06:45:49;;;;;;;7.93;4.90;;;31.20;46.10;;;;;;5078756;27;88589;-54
2023/09/08 06:48:17;;;;;;;7.47;4.63;;;31.20;46.10;;;;;;5079377;27;87892;-54
2023/09/08 06:50:45;;;;;;;10.83;6.23;;;31.20;46.10;;;;;;5079486;27;88796;-54
2023/09/08 06:53:15;;;;;;;16.07;6.77;;;31.20;46.10;;;;;;5080282;27;87549;-54
2023/09/08 06:55:43;;;;;;;13.40;6.50;;;31.20;46.10;;;;;;5079649;27;87599;-54
2023/09/08 06:58:14;;;;;;;6.07;5.43;;;31.20;46.10;;;;;;5078907;27;89123;-54
2023/09/08 07:00:42;;;;;;;9.90;6.53;;;31.30;46.10;;;;;;5079230;27;89831;-54
2023/09/08 07:03:11;;;;;;;10.37;6.80;;;31.30;46.10;;;;;;5079434;27;87557;-54
2023/09/08 07:05:40;;;;;;;13.00;7.73;;;31.30;46.10;;;;;;5078750;27;88492;-54
2023/09/08 07:08:08;;;;;;;10.60;6.17;;;31.30;46.10;;;;;;5076051;27;87988;-54
2023/09/08 07:10:37;;;;;;;10.83;6.77;;;31.30;46.10;;;;;;5078568;27;89060;-54
2023/09/08 07:13:05;;;;;;;8.13;5.83;;;31.30;46.10;;;;;;5079854;27;87713;-54
2023/09/08 07:15:34;;;;;;;10.13;5.17;;;31.30;46.10;;;;;;5079537;27;89388;-53
2023/09/08 07:18:02;;;;;;;11.20;7.17;;;31.30;46.10;;;;;;5078916;27;87898;-54
2023/09/08 07:20:33;;;;;;;8.90;6.40;;;31.30;46.10;;;;;;5079274;27;88848;-53
2023/09/08 07:23:01;;;;;;;8.87;6.27;;;31.30;46.10;;;;;;5078913;27;87995;-53
2023/09/08 07:25:29;;;;;;;9.60;7.00;;;31.30;46.10;;;;;;5079083;27;89798;-54
2023/09/08 07:27:59;;;;;;;10.67;7.17;;;31.30;46.10;;;;;;5079657;27;89165;-53
2023/09/08 07:30:27;;;;;;;9.40;7.20;;;31.30;46.10;;;;;;5079027;27;88678;-54
2023/09/08 07:32:56;;;;;;;12.17;7.43;;;31.30;46.10;;;;;;5079364;27;87488;-54
2023/09/08 07:35:24;;;;;;;10.80;6.87;;;31.30;46.70;;;;;;5078499;27;88172;-54
2023/09/08 07:37:52;;;;;;;10.17;7.00;;;31.30;46.10;;;;;;5078995;27;89549;-54
2023/09/08 07:40:21;;;;;;;13.80;7.37;;;31.30;46.20;;;;;;5078764;27;87886;-54
2023/09/08 07:42:50;;;;;;;9.70;6.80;;;31.30;46.10;;;;;;5079196;27;88170;-54
2023/09/08 07:45:19;;;;;;;13.10;6.53;;;31.30;46.10;;;;;;5079517;27;88550;-54
2023/09/08 07:47:47;;;;;;;9.80;6.00;;;31.30;46.20;;;;;;5077766;27;89149;-54
2023/09/08 07:50:20;;;;;;;7.10;5.60;;;31.30;46.20;;;;;;5078837;27;89766;-54
2023/09/08 07:52:49;;;;;;;8.10;5.47;;;31.30;46.20;;;;;;5078836;27;88386;-54
2023/09/08 07:55:17;;;;;;;7.40;5.27;;;31.30;46.30;;;;;;5079392;27;89896;-54
2023/09/08 07:57:46;;;;;;;9.97;5.90;;;31.30;46.40;;;;;;5078972;27;87953;-55
2023/09/08 08:00:15;;;;;;;8.23;6.17;;;31.30;46.30;;;;;;5077812;27;88921;-54
2023/09/08 08:02:46;;;;;;;8.83;5.67;;;31.30;46.40;;;;;;5079033;27;87684;-54
2023/09/08 08:05:15;;;;;;;7.90;5.00;;;31.30;46.40;;;;;;5078878;27;89280;-54
2023/09/08 08:07:44;;;;;;;8.17;6.17;;;31.30;46.40;;;;;;5078874;27;88098;-54
2023/09/08 08:10:12;;;;;;;11.63;5.63;;;31.30;46.40;;;;;;5078039;27;87743;-54
2023/09/08 08:12:41;;;;;;;6.80;5.20;;;31.30;46.40;;;;;;5078130;27;88481;-54
2023/09/08 08:15:10;;;;;;;7.83;5.40;;;31.30;46.40;;;;;;5077894;27;89624;-54
2023/09/08 08:17:38;;;;;;;6.17;4.93;;;31.30;46.40;;;;;;5078203;27;89146;-54
2023/09/08 08:20:09;;;;;;;10.17;4.83;;;31.30;46.40;;;;;;5078513;27;88652;-54
2023/09/08 08:22:38;;;;;;;5.57;4.20;;;31.30;46.40;;;;;;5078335;27;87377;-54
2023/09/08 08:25:06;;;;;;;5.90;4.77;;;31.30;46.40;;;;;;5077830;27;89723;-54
2023/09/08 08:27:36;;;;;;;7.53;5.07;;;31.30;46.50;;;;;;5078328;27;89084;-54
2023/09/08 08:30:05;;;;;;;6.53;4.73;;;31.30;46.50;;;;;;5078680;27;88699;-54
2023/09/08 08:32:34;;;;;;;7.33;4.67;;;31.30;46.50;;;;;;5077735;27;87661;-54
2023/09/08 08:35:04;;;;;;;6.00;4.73;;;31.30;46.50;;;;;;5078230;27;87566;-54
2023/09/08 08:37:33;;;;;;;6.37;4.43;;;31.30;46.50;;;;;;5077920;27;88633;-54
2023/09/08 08:40:02;;;;;;;5.63;4.23;;;31.30;46.50;;;;;;5078216;27;88592;-56
2023/09/08 08:42:32;;;;;;;8.73;4.50;;;31.30;46.60;;;;;;5078857;27;88030;-54
2023/09/08 08:45:03;;;;;;;6.87;4.33;;;31.30;46.60;;;;;;5078318;27;89849;-58
2023/09/08 08:47:31;;;;;;;11.43;4.33;;;31.30;46.60;;;;;;5077976;27;88160;-57
2023/09/08 08:50:00;;;;;;;4.93;3.33;;;31.30;46.60;;;;;;5078013;27;88939;-58
2023/09/08 08:52:28;;;;;;;5.90;4.60;;;31.30;46.70;;;;;;5077247;27;87600;-54
2023/09/08 08:54:57;;;;;;;4.83;3.10;;;31.30;46.80;;;;;;5077330;27;89655;-55
2023/09/08 08:57:27;;;;;;;5.23;3.80;;;31.30;46.80;;;;;;5072856;27;89048;-55
2023/09/08 08:59:55;;;;;;;4.33;3.50;;;31.30;46.80;;;;;;5075129;27;87562;-54
2023/09/08 09:02:23;;;;;;;4.80;3.60;;;31.30;46.80;;;;;;5076914;27;88295;-54
2023/09/08 09:04:51;;;;;;;3.93;3.47;;;31.40;46.90;;;;;;5075276;27;88512;-54
2023/09/08 09:07:20;;;;;;;5.67;3.50;;;31.40;46.90;;;;;;5074151;27;88235;-55
2023/09/08 09:09:48;;;;;;;5.40;3.70;;;31.40;46.90;;;;;;5076415;27;87538;-54
2023/09/08 09:12:17;;;;;;;4.57;3.00;;;31.40;46.90;;;;;;5076492;27;88175;-54
2023/09/08 09:14:48;;;;;;;3.33;2.90;;;31.40;47.60;;;;;;5076333;27;88341;-55
2023/09/08 09:17:16;;;;;;;3.97;3.07;;;31.40;47.00;;;;;;5076498;27;89325;-54
2023/09/08 09:19:44;;;;;;;5.53;3.07;;;31.40;47.00;;;;;;5076288;27;87635;-55
2023/09/08 09:22:13;;;;;;;5.87;3.50;;;31.50;47.00;;;;;;5074184;27;88475;-55
2023/09/08 09:24:43;;;;;;;5.43;3.53;;;31.40;47.00;;;;;;5071614;27;89781;-54
2023/09/08 09:27:12;;;;;;;4.07;3.07;;;31.50;47.10;;;;;;5076413;27;88951;-55
2023/09/08 09:29:47;;;;;;;5.70;3.10;;;31.50;47.20;;;;;;5073286;27;89252;-54
2023/09/08 09:32:15;;;;;;;3.57;2.77;;;31.40;47.10;;;;;;5078411;27;87769;-55
2023/09/08 09:34:49;;;;;;;4.37;3.10;;;31.50;47.20;;;;;;5079184;27;89748;-55
2023/09/08 09:37:17;;;;;;;4.10;3.10;;;31.50;47.30;;;;;;5077718;27;89210;-55
2023/09/08 09:39:49;;;;;;;4.40;2.90;;;31.50;47.30;;;;;;5078868;27;89011;-55
2023/09/08 09:42:17;;;;;;;7.80;3.87;;;31.50;47.30;;;;;;5078699;27;87656;-54
2023/09/08 09:44:47;;;;;;;5.17;3.53;;;31.50;47.30;;;;;;5080640;27;88472;-55
2023/09/08 09:47:15;;;;;;;4.57;3.33;;;31.50;47.30;;;;;;5083064;27;88242;-55
2023/09/08 09:49:43;;;;;;;4.10;3.57;;;31.50;47.30;;;;;;5082125;27;88420;-55
2023/09/08 09:52:12;;;;;;;5.03;4.03;;;31.50;47.30;;;;;;5078964;27;88018;-55
2023/09/08 09:54:41;;;;;;;4.27;3.20;;;31.50;47.30;;;;;;5072584;27;89681;-55
2023/09/08 09:57:10;;;;;;;5.80;3.60;;;31.50;47.30;;;;;;5073003;27;89154;-55
2023/09/08 09:59:38;;;;;;;5.20;3.43;;;31.50;47.30;;;;;;5077995;27;88779;-55
2023/09/08 10:02:07;;;;;;;4.43;3.00;;;31.50;47.30;;;;;;5082929;27;87580;-55
2023/09/08 10:04:35;;;;;;;5.97;3.40;;;31.60;47.40;;;;;;5082722;27;89125;-55
2023/09/08 10:07:04;;;;;;;5.57;3.07;;;31.60;47.40;;;;;;5073953;27;87964;-55
2023/09/08 10:09:32;;;;;;;3.83;3.47;;;31.60;47.40;;;;;;5082581;27;87703;-54
2023/09/08 10:12:02;;;;;;;6.47;4.10;;;31.60;47.40;;;;;;5083081;27;87524;-55
2023/09/08 10:14:31;;;;;;;4.87;3.47;;;31.60;47.50;;;;;;5082794;27;89365;-55
2023/09/08 10:17:00;;;;;;;5.23;3.10;;;31.60;47.50;;;;;;5072413;27;89740;-55
2023/09/08 10:19:30;;;;;;;4.20;3.20;;;31.60;47.50;;;;;;5077542;27;89772;-55
2023/09/08 10:22:01;;;;;;;4.07;3.20;;;31.70;47.50;;;;;;5082626;27;87619;-55
2023/09/08 10:24:29;;;;;;;4.70;3.17;;;31.70;47.50;;;;;;5082939;27;89730;-55
2023/09/08 10:26:59;;;;;;;6.50;3.40;;;31.70;47.50;;;;;;5081936;27;88314;-55
2023/09/08 10:29:28;;;;;;;3.80;3.07;;;31.70;47.50;;;;;;5081931;27;88959;-54
2023/09/08 10:31:56;;;;;;;4.73;3.13;;;31.70;47.50;;;;;;5080712;27;87631;-55
2023/09/08 10:34:24;;;;;;;5.10;2.90;;;31.70;47.50;;;;;;5082202;27;89967;-55
2023/09/08 10:36:53;;;;;;;4.10;2.83;;;31.70;47.50;;;;;;5081962;27;88048;-55
2023/09/08 10:39:32;;;;;;;4.00;2.90;;;31.70;47.50;;;;;;5082120;27;88026;-56
2023/09/08 10:42:29;;;;;;;4.77;3.60;;;31.70;47.50;;;;;;5082016;27;87964;-57
2023/09/08 10:45:04;;;;;;;6.33;2.93;;;31.70;47.50;;;;;;5082159;27;89860;-56
2023/09/08 10:47:34;;;;;;;3.43;2.67;;;31.70;47.50;;;;;;5082857;27;89155;-56
2023/09/08 10:50:03;;;;;;;4.03;2.80;;;31.80;47.60;;;;;;5081831;27;87746;-56
2023/09/08 10:52:35;;;;;;;4.00;2.70;;;31.80;47.60;;;;;;5078265;27;87575;-56
2023/09/08 10:55:03;;;;;;;4.10;2.80;;;31.80;47.60;;;;;;5081078;27;89600;-56
2023/09/08 10:57:33;;;;;;;3.33;2.90;;;31.80;47.60;;;;;;5082304;27;88057;-56
2023/09/08 11:00:05;;;;;;;3.13;2.80;;;31.80;47.50;;;;;;5082535;27;88790;-56
2023/09/08 11:02:34;;;;;;;4.03;2.70;;;31.90;47.50;;;;;;5082108;27;87620;-56
2023/09/08 11:05:04;;;;;;;3.70;2.53;;;31.90;47.50;;;;;;5082356;27;89660;-56
2023/09/08 11:07:34;;;;;;;4.73;2.40;;;31.90;47.70;;;;;;5080899;27;89958;-56
2023/09/08 11:10:02;;;;;;;5.23;3.10;;;31.90;47.50;;;;;;5081411;27;89979;-56
2023/09/08 11:12:31;;;;;;;2.97;2.10;;;32.00;47.50;;;;;;5082288;27;87581;-56
2023/09/08 11:15:00;;;;;;;4.67;2.63;;;32.00;47.50;;;;;;5080650;27;89647;-57
2023/09/08 11:17:28;;;;;;;3.90;2.70;;;32.00;47.50;;;;;;5081679;27;88066;-56
2023/09/08 11:19:57;;;;;;;2.83;2.50;;;32.00;47.40;;;;;;5081184;27;88889;-56
2023/09/08 11:22:25;;;;;;;3.77;2.50;;;32.10;47.40;;;;;;5081861;27;87561;-56
2023/09/08 11:24:57;;;;;;;3.97;2.63;;;32.10;47.40;;;;;;5082037;27;88544;-56
2023/09/08 11:27:25;;;;;;;4.73;2.50;;;32.10;48.10;;;;;;5081803;27;88040;-56
2023/09/08 11:29:53;;;;;;;2.77;2.13;;;32.20;47.40;;;;;;5081208;27;87523;-57
2023/09/08 11:32:21;;;;;;;2.83;2.30;;;32.20;47.40;;;;;;5081349;27;88614;-56
2023/09/08 11:34:50;;;;;;;2.57;2.30;;;32.20;47.40;;;;;;5080793;27;89663;-56
2023/09/08 11:37:19;;;;;;;3.60;2.63;;;32.20;47.40;;;;;;5082172;27;88044;-56
2023/09/08 11:39:47;;;;;;;3.57;2.20;;;32.20;47.30;;;;;;5081850;27;88794;-56
2023/09/08 11:42:17;;;;;;;2.83;2.17;;;32.20;47.30;;;;;;5081369;27;87692;-57
2023/09/08 11:44:45;;;;;;;2.70;2.20;;;32.20;47.30;;;;;;5081652;27;87540;-56
2023/09/08 11:47:13;;;;;;;2.87;1.93;;;32.20;47.30;;;;;;5080890;27;88070;-57
2023/09/08 11:49:41;;;;;;;2.53;2.23;;;32.20;47.20;;;;;;5081722;27;88848;-56
2023/09/08 11:52:09;;;;;;;2.93;2.40;;;32.30;47.30;;;;;;5081106;27;87826;-56
2023/09/08 11:54:38;;;;;;;2.40;2.20;;;32.30;47.20;;;;;;5081231;27;89927;-57
2023/09/08 11:57:28;;;;;;;3.10;2.20;;;32.30;47.10;;;;;;5080210;27;88753;-56
2023/09/08 11:59:56;;;;;;;2.93;2.07;;;32.30;47.10;;;;;;5080978;27;88670;-56
2023/09/08 12:02:25;;;;;;;2.20;2.00;;;32.30;47.00;;;;;;5080221;27;87488;-56
2023/09/08 12:04:54;;;;;;;2.33;1.90;;;32.40;47.00;;;;;;5080794;27;89678;-56
2023/09/08 12:07:23;;;;;;;2.53;1.90;;;32.40;47.00;;;;;;5079555;27;87522;-55
2023/09/08 12:09:51;;;;;;;2.10;1.90;;;32.40;47.00;;;;;;5080861;27;88745;-56
2023/09/08 12:12:19;;;;;;;11.40;4.57;;;32.40;46.80;;;;;;5073518;27;87750;-56
2023/09/08 12:14:49;;;;;;;27.73;6.13;;;32.50;46.90;;;;;;5061616;27;87335;-56
2023/09/08 12:17:18;;;;;;;16.17;4.53;;;32.50;46.70;;;;;;5061631;27;87963;-56
2023/09/08 12:19:46;;;;;;;11.23;4.83;;;32.60;46.60;;;;;;5064092;27;88916;-56
2023/09/08 12:22:17;;;;;;;12.60;4.83;;;32.60;47.20;;;;;;5079538;27;88036;-56
2023/09/08 12:24:49;;;;;;;10.60;4.37;;;32.70;46.50;;;;;;5080259;27;88521;-57
2023/09/08 12:27:17;;;;;;;13.93;4.07;;;32.70;46.50;;;;;;5074953;27;89343;-56
2023/09/08 12:30:00;;;;;;;6.77;3.03;;;32.70;46.50;;;;;;5080860;27;88868;-56
2023/09/08 12:32:30;;;;;;;10.43;3.67;;;32.70;46.40;;;;;;5081369;27;87696;-56
2023/09/08 12:35:00;;;;;;;8.67;3.10;;;32.80;46.40;;;;;;5080897;27;89779;-56
2023/09/08 12:37:28;;;;;;;9.73;3.10;;;32.80;46.40;;;;;;5080950;27;88153;-56
2023/09/08 12:39:57;;;;;;;5.40;2.50;;;32.80;46.30;;;;;;5081423;27;87780;-56
2023/09/08 12:42:28;;;;;;;4.63;2.70;;;32.80;46.20;;;;;;5081366;27;87625;-56
2023/09/08 12:44:57;;;;;;;7.63;2.77;;;32.80;46.20;;;;;;5080824;27;89866;-56
2023/09/08 12:47:26;;;;;;;5.87;2.67;;;32.90;46.10;;;;;;5080808;27;89027;-56
2023/09/08 12:49:55;;;;;;;10.73;3.23;;;32.90;46.10;;;;;;5080983;27;88512;-56
2023/09/08 12:52:23;;;;;;;8.13;3.00;;;32.90;46.10;;;;;;5079692;27;88247;-56
2023/09/08 12:54:52;;;;;;;4.67;2.53;;;33.00;46.00;;;;;;5081046;27;88587;-56